Felton, California
Current Conditions -  °F | °C
As of 8:53 AM on Friday 31 Oct 2014 (Local Time) from KWVI Reporting Station
Overcast Overcast  
Wind Chill: 63°   Ceiling: 1600
Heat Index: 63°   Visibility: 10mi
Dew Point: 57°   Wind: 9mph
Humidity: 81%   Direction: 230°SW
Pressure: 29.92"   Gusts: NA
Location:  37.05°N, 122.07°W
Report Text: KWVI 311553Z AUTO 23008KT 10SM BKN016 BKN036 OVC047 17/14 A2992 RMK AO2 SLP131 T01720139
Loading
Personal Weather Stations






























Interactive Weather Map
Tropical Storm Tracking
New forecast layout! Learn more

10-Day Weather Forecast

Advertisements
Track Severe Weather on mobile